createdAt,value
2022-10-01T00:01:13.304Z,10.90
2022-10-01T00:03:40.777Z,11.00
2022-10-01T00:06:09.466Z,10.90
2022-10-01T00:08:37.649Z,11.00
2022-10-01T00:11:09.718Z,10.90
2022-10-01T00:13:36.508Z,10.90
2022-10-01T00:16:08.695Z,10.90
2022-10-01T00:18:37.529Z,10.90
2022-10-01T00:21:16.484Z,10.90
2022-10-01T00:23:43.572Z,10.90
2022-10-01T00:26:17.287Z,10.90
2022-10-01T00:28:45.999Z,11.00
2022-10-01T00:31:14.338Z,11.00
2022-10-01T00:33:41.549Z,11.00
2022-10-01T00:36:09.803Z,11.00
2022-10-01T00:38:37.878Z,11.00
2022-10-01T00:41:05.185Z,11.10
2022-10-01T00:43:33.905Z,11.00
2022-10-01T00:46:06.917Z,11.10
2022-10-01T00:48:42.398Z,11.00
2022-10-01T00:51:09.330Z,11.00
2022-10-01T00:53:36.235Z,11.00
2022-10-01T00:56:03.003Z,10.90
2022-10-01T00:58:29.922Z,10.90
2022-10-01T01:00:57.317Z,10.90
2022-10-01T01:03:24.798Z,10.80
2022-10-01T01:05:51.493Z,10.80
2022-10-01T01:08:18.784Z,10.80
2022-10-01T01:10:50.115Z,10.70
2022-10-01T01:13:50.172Z,10.60
2022-10-01T01:16:39.102Z,10.60
2022-10-01T01:19:20.528Z,10.60
2022-10-01T01:21:53.012Z,10.60
2022-10-01T01:24:19.656Z,10.70
2022-10-01T01:26:49.334Z,10.70
2022-10-01T01:29:43.225Z,10.70
2022-10-01T01:32:18.633Z,10.70
2022-10-01T01:34:48.861Z,10.70
2022-10-01T01:37:18.381Z,10.70
2022-10-01T01:39:50.278Z,10.80
2022-10-01T01:42:29.067Z,10.80
2022-10-01T01:44:59.287Z,10.80
2022-10-01T01:47:29.546Z,10.80
2022-10-01T01:49:58.062Z,10.80
2022-10-01T01:52:24.843Z,10.80
2022-10-01T01:54:51.802Z,10.90
2022-10-01T01:57:20.110Z,10.80
2022-10-01T01:59:47.188Z,10.90
2022-10-01T02:02:22.762Z,10.80
2022-10-01T02:05:00.624Z,10.80
2022-10-01T02:07:48.922Z,10.80
2022-10-01T02:10:42.927Z,10.80
2022-10-01T02:13:38.943Z,10.80
2022-10-01T02:16:22.678Z,10.80
2022-10-01T02:19:00.045Z,10.70
2022-10-01T02:21:40.881Z,10.80
2022-10-01T02:24:16.874Z,10.70
2022-10-01T02:26:47.267Z,10.70
2022-10-01T02:29:16.937Z,10.70
2022-10-01T02:31:47.210Z,10.70
2022-10-01T02:34:20.255Z,10.70
2022-10-01T02:36:49.092Z,10.70
2022-10-01T02:39:17.882Z,10.70
2022-10-01T02:41:47.975Z,10.70
2022-10-01T02:44:22.807Z,10.70
2022-10-01T02:47:07.628Z,10.70
2022-10-01T02:49:36.865Z,10.70
2022-10-01T02:52:15.409Z,10.70
2022-10-01T02:54:57.158Z,10.70
2022-10-01T02:57:24.707Z,10.70
2022-10-01T02:59:51.912Z,10.60
2022-10-01T03:02:19.956Z,10.70
2022-10-01T03:04:49.715Z,10.60
2022-10-01T03:07:16.822Z,10.60
2022-10-01T03:09:43.628Z,10.60
2022-10-01T03:12:13.494Z,10.60
2022-10-01T03:14:40.232Z,10.60
2022-10-01T03:17:07.528Z,10.60
2022-10-01T03:19:34.474Z,10.70
2022-10-01T03:22:01.321Z,10.70
2022-10-01T03:24:28.054Z,10.70
2022-10-01T03:26:58.276Z,10.70
2022-10-01T03:29:25.984Z,10.70
2022-10-01T03:31:53.688Z,10.70
2022-10-01T03:34:20.998Z,10.70
2022-10-01T03:36:48.325Z,10.70
2022-10-01T03:39:15.022Z,10.70
2022-10-01T03:41:41.695Z,10.70
2022-10-01T03:44:08.371Z,10.70
2022-10-01T03:46:35.084Z,10.70
2022-10-01T03:49:01.858Z,10.70
2022-10-01T03:51:29.423Z,10.70
2022-10-01T03:53:57.436Z,10.70
2022-10-01T03:56:25.212Z,10.70
2022-10-01T03:58:52.152Z,10.70
2022-10-01T04:01:18.925Z,10.80
2022-10-01T04:03:45.680Z,10.70
2022-10-01T04:06:12.722Z,10.80
2022-10-01T04:08:39.725Z,10.70
2022-10-01T04:11:07.130Z,10.70
2022-10-01T04:13:34.571Z,10.70
2022-10-01T04:16:02.474Z,10.70
2022-10-01T04:18:29.365Z,10.70
2022-10-01T04:20:56.063Z,10.70
2022-10-01T04:23:22.739Z,10.60
2022-10-01T04:25:49.811Z,10.70
2022-10-01T04:28:16.786Z,10.70
2022-10-01T04:30:45.280Z,10.70
2022-10-01T04:33:15.244Z,10.70
2022-10-01T04:35:43.368Z,10.70
2022-10-01T04:38:15.042Z,10.70
2022-10-01T04:40:41.840Z,10.70
2022-10-01T04:43:09.666Z,10.60
2022-10-01T04:45:39.290Z,10.60
2022-10-01T04:48:06.113Z,10.60
2022-10-01T04:50:33.045Z,10.50
2022-10-01T04:53:00.000Z,10.50
2022-10-01T04:55:27.030Z,10.50
2022-10-01T04:57:54.018Z,10.50
2022-10-01T05:00:24.470Z,10.50
2022-10-01T05:02:51.513Z,10.60
2022-10-01T05:05:20.859Z,10.60
2022-10-01T05:07:47.870Z,10.60
2022-10-01T05:10:17.860Z,10.60
2022-10-01T05:12:46.196Z,10.50
2022-10-01T05:15:13.622Z,10.90
2022-10-01T05:17:40.341Z,10.50
2022-10-01T05:20:08.181Z,10.50
2022-10-01T05:22:35.071Z,10.50
2022-10-01T05:25:02.154Z,10.50
2022-10-01T05:27:30.893Z,10.50
2022-10-01T05:29:57.554Z,10.50
2022-10-01T05:32:24.526Z,10.60
2022-10-01T05:34:53.617Z,10.60
2022-10-01T05:37:20.737Z,10.60
2022-10-01T05:39:47.737Z,10.60
2022-10-01T05:42:14.407Z,10.60
2022-10-01T05:44:46.055Z,10.60
2022-10-01T05:47:13.990Z,10.60
2022-10-01T05:49:43.759Z,10.60
2022-10-01T05:52:11.818Z,10.70
2022-10-01T05:54:38.894Z,10.70
2022-10-01T05:57:06.306Z,10.80
2022-10-01T05:59:32.919Z,10.80
2022-10-01T06:01:59.926Z,10.90
2022-10-01T06:04:26.738Z,10.90
2022-10-01T06:06:53.958Z,10.90
2022-10-01T06:09:20.658Z,11.00
2022-10-01T06:11:48.880Z,11.00
2022-10-01T06:14:16.410Z,11.00
2022-10-01T06:16:43.205Z,11.10
2022-10-01T06:19:09.985Z,11.10
2022-10-01T06:21:37.003Z,11.20
2022-10-01T06:24:04.116Z,11.20
2022-10-01T06:26:31.156Z,11.20
2022-10-01T06:28:57.868Z,11.30
2022-10-01T06:31:25.097Z,11.30
2022-10-01T06:33:51.873Z,11.30
2022-10-01T06:36:18.639Z,11.30
2022-10-01T06:38:48.522Z,11.40
2022-10-01T06:41:15.286Z,11.50
2022-10-01T06:43:42.010Z,11.60
2022-10-01T06:46:08.727Z,11.70
2022-10-01T06:48:36.548Z,11.80
2022-10-01T06:51:04.090Z,11.90
2022-10-01T06:53:30.803Z,12.00
2022-10-01T06:56:02.903Z,11.90
2022-10-01T06:58:29.590Z,12.00
2022-10-01T07:01:01.357Z,11.90
2022-10-01T07:03:28.901Z,12.00
2022-10-01T07:06:00.353Z,12.10
2022-10-01T07:08:27.012Z,12.00
2022-10-01T07:10:59.049Z,12.10
2022-10-01T07:13:25.744Z,12.10
2022-10-01T07:15:52.392Z,12.10
2022-10-01T07:18:19.065Z,12.10
2022-10-01T07:20:45.952Z,12.10
2022-10-01T07:23:13.954Z,12.10
2022-10-01T07:25:41.885Z,12.10
2022-10-01T07:28:16.312Z,12.10
2022-10-01T07:30:47.440Z,12.20
2022-10-01T07:33:18.851Z,12.30
2022-10-01T07:35:47.723Z,12.40
2022-10-01T07:38:14.441Z,12.40
2022-10-01T07:40:41.758Z,12.50
2022-10-01T07:43:08.635Z,12.50
2022-10-01T07:45:35.459Z,12.70
2022-10-01T07:48:03.148Z,12.60
2022-10-01T07:50:30.620Z,12.60
2022-10-01T07:52:58.743Z,12.60
2022-10-01T07:55:27.076Z,12.50
2022-10-01T07:57:55.343Z,12.60
2022-10-01T08:00:24.054Z,12.70
2022-10-01T08:02:53.506Z,12.90
2022-10-01T08:05:22.010Z,13.00
2022-10-01T08:07:49.748Z,13.00
2022-10-01T08:10:18.789Z,13.10
2022-10-01T08:12:46.139Z,13.20
2022-10-01T08:15:14.109Z,13.20
2022-10-01T08:17:41.691Z,13.40
2022-10-01T08:20:10.715Z,13.30
2022-10-01T08:22:41.878Z,13.40
2022-10-01T08:25:09.399Z,13.40
2022-10-01T08:27:36.283Z,13.40
2022-10-01T08:30:03.427Z,13.40
2022-10-01T08:32:31.381Z,13.40
2022-10-01T08:34:59.839Z,13.40
2022-10-01T08:37:27.910Z,13.40
2022-10-01T08:39:55.804Z,13.30
2022-10-01T08:42:50.187Z,13.30
2022-10-01T08:45:25.960Z,13.40
2022-10-01T08:48:09.180Z,13.40
2022-10-01T08:50:47.941Z,13.50
2022-10-01T08:53:24.981Z,13.50
2022-10-01T08:55:54.178Z,13.70
2022-10-01T08:58:26.886Z,13.80
2022-10-01T09:00:54.414Z,13.80
2022-10-01T09:03:21.162Z,14.10
2022-10-01T09:06:09.609Z,14.20
2022-10-01T09:08:45.452Z,14.40
2022-10-01T09:11:44.125Z,14.60
2022-10-01T09:14:26.345Z,14.70
2022-10-01T09:17:11.237Z,14.50
2022-10-01T09:20:09.652Z,14.70
2022-10-01T09:23:02.293Z,14.90
2022-10-01T09:25:29.422Z,14.90
2022-10-01T09:28:20.388Z,14.90
2022-10-01T09:31:04.105Z,14.90
2022-10-01T09:33:37.140Z,14.80
2022-10-01T09:36:34.838Z,14.70
2022-10-01T09:39:10.615Z,14.80
2022-10-01T09:41:37.556Z,14.80
2022-10-01T09:44:05.218Z,15.00
2022-10-01T09:46:31.946Z,15.00
2022-10-01T09:49:15.035Z,15.10
2022-10-01T09:51:46.199Z,15.10
2022-10-01T09:54:18.943Z,15.10
2022-10-01T09:56:50.197Z,15.10
2022-10-01T09:59:26.849Z,15.10
2022-10-01T10:01:59.242Z,15.10
2022-10-01T10:04:26.228Z,15.20
2022-10-01T10:07:01.387Z,15.20
2022-10-01T10:09:33.763Z,15.20
2022-10-01T10:12:01.222Z,15.30
2022-10-01T10:14:35.581Z,15.40
2022-10-01T10:17:16.720Z,15.40
2022-10-01T10:19:52.292Z,15.50
2022-10-01T10:22:24.785Z,15.70
2022-10-01T10:24:53.544Z,15.70
2022-10-01T10:27:26.763Z,15.60
2022-10-01T10:30:14.368Z,15.40
2022-10-01T10:32:42.829Z,15.30
2022-10-01T10:35:15.362Z,15.00
2022-10-01T10:37:55.044Z,15.00
2022-10-01T10:40:29.252Z,14.70
2022-10-01T10:42:58.874Z,14.50
2022-10-01T10:45:33.232Z,14.50
2022-10-01T10:48:03.862Z,14.60
2022-10-01T10:50:37.115Z,14.70
2022-10-01T10:53:24.179Z,14.70
2022-10-01T10:56:01.077Z,14.60
2022-10-01T10:58:33.624Z,14.60
2022-10-01T11:01:06.110Z,14.70
2022-10-01T11:03:36.202Z,14.80
2022-10-01T11:06:11.266Z,14.90
2022-10-01T11:08:39.341Z,15.10
2022-10-01T11:11:33.556Z,15.10
2022-10-01T11:14:22.806Z,15.10
2022-10-01T11:17:14.954Z,15.30
2022-10-01T11:19:55.435Z,15.30
2022-10-01T11:22:42.462Z,15.20
2022-10-01T11:25:15.022Z,15.10
2022-10-01T11:28:00.790Z,14.80
2022-10-01T11:30:47.314Z,14.70
2022-10-01T11:33:25.004Z,14.70
2022-10-01T11:36:07.056Z,14.70
2022-10-01T11:38:49.919Z,14.60
2022-10-01T11:41:44.378Z,14.50
2022-10-01T11:44:16.441Z,14.50
2022-10-01T11:47:03.701Z,14.50
2022-10-01T11:50:11.372Z,14.50
2022-10-01T11:52:46.526Z,14.40
2022-10-01T11:56:06.781Z,14.40
2022-10-01T11:58:54.194Z,14.30
2022-10-01T12:01:23.929Z,14.20
2022-10-01T12:03:53.708Z,14.10
2022-10-01T12:06:53.062Z,14.10
2022-10-01T12:09:32.417Z,14.00
2022-10-01T12:12:05.831Z,13.90
2022-10-01T12:14:52.432Z,13.70
2022-10-01T12:17:40.617Z,13.70
2022-10-01T12:20:19.351Z,13.70
2022-10-01T12:22:47.435Z,13.80
2022-10-01T12:25:14.362Z,13.70
2022-10-01T12:27:57.520Z,13.60
2022-10-01T12:30:36.044Z,13.70
2022-10-01T12:33:40.094Z,13.50
2022-10-01T12:36:25.360Z,13.60
2022-10-01T12:39:10.101Z,13.60
2022-10-01T12:42:03.147Z,13.60
2022-10-01T12:44:37.951Z,13.60
2022-10-01T12:47:40.206Z,13.60
2022-10-01T12:50:25.571Z,13.60
2022-10-01T12:53:15.313Z,13.60
2022-10-01T12:56:00.409Z,13.60
2022-10-01T12:58:38.995Z,13.70
2022-10-01T13:01:11.682Z,13.70
2022-10-01T13:04:09.275Z,13.80
2022-10-01T13:06:55.101Z,13.90
2022-10-01T13:09:46.606Z,13.70
2022-10-01T13:12:56.445Z,13.70
2022-10-01T13:15:33.196Z,13.60
2022-10-01T13:18:15.883Z,13.60
2022-10-01T13:20:56.769Z,13.60
2022-10-01T13:23:53.401Z,13.40
2022-10-01T13:26:41.030Z,13.40
2022-10-01T13:29:26.266Z,13.40
2022-10-01T13:31:52.908Z,13.40
2022-10-01T13:34:43.284Z,13.40
2022-10-01T13:37:32.588Z,13.40
2022-10-01T13:40:00.177Z,13.30
2022-10-01T13:42:30.220Z,13.30
2022-10-01T13:45:00.465Z,13.20
2022-10-01T13:47:28.482Z,13.20
2022-10-01T13:50:03.942Z,13.20
2022-10-01T13:52:32.024Z,13.30
2022-10-01T13:55:01.159Z,13.40
2022-10-01T13:57:36.018Z,13.20
2022-10-01T14:00:21.088Z,13.30
2022-10-01T14:03:22.404Z,13.20
2022-10-01T14:05:56.700Z,13.30
2022-10-01T14:09:00.762Z,13.20
2022-10-01T14:11:49.179Z,13.20
2022-10-01T14:14:40.256Z,13.10
2022-10-01T14:17:11.593Z,13.10
2022-10-01T14:19:46.951Z,13.10
2022-10-01T14:22:35.034Z,13.10
2022-10-01T14:25:07.937Z,13.10
2022-10-01T14:28:25.238Z,13.10
2022-10-01T14:31:29.155Z,13.00
2022-10-01T14:34:24.943Z,12.90
2022-10-01T14:36:53.887Z,13.00
2022-10-01T14:39:23.612Z,13.00
2022-10-01T14:41:52.589Z,13.00
2022-10-01T14:44:31.606Z,13.00
2022-10-01T14:46:59.702Z,12.90
2022-10-01T14:49:31.533Z,12.90
2022-10-01T14:52:03.217Z,12.80
2022-10-01T14:54:34.629Z,12.80
2022-10-01T14:57:04.328Z,12.90
2022-10-01T14:59:37.246Z,12.90
2022-10-01T15:02:18.238Z,12.80
2022-10-01T15:04:56.592Z,12.80
2022-10-01T15:07:25.488Z,12.80
2022-10-01T15:09:52.176Z,12.80
2022-10-01T15:12:22.250Z,12.80
2022-10-01T15:14:53.937Z,12.60
2022-10-01T15:17:24.748Z,12.50
2022-10-01T15:19:54.738Z,12.40
2022-10-01T15:22:26.216Z,12.30
2022-10-01T15:24:57.764Z,12.30
2022-10-01T15:27:25.941Z,12.20
2022-10-01T15:29:56.615Z,12.20
2022-10-01T15:32:25.145Z,12.20
2022-10-01T15:34:57.904Z,12.20
2022-10-01T15:37:33.026Z,12.20
2022-10-01T15:40:01.010Z,12.20
2022-10-01T15:42:31.517Z,12.30
2022-10-01T15:45:07.373Z,12.40
2022-10-01T15:47:47.650Z,12.40
2022-10-01T15:50:18.078Z,12.40
2022-10-01T15:52:51.967Z,12.40
2022-10-01T15:55:41.823Z,12.50
2022-10-01T15:58:30.937Z,12.50
2022-10-01T16:01:10.402Z,12.50
2022-10-01T16:04:00.196Z,12.40
2022-10-01T16:06:37.514Z,12.40
2022-10-01T16:09:11.895Z,12.30
2022-10-01T16:11:59.483Z,12.20
2022-10-01T16:14:44.008Z,12.10
2022-10-01T16:17:16.612Z,12.00
2022-10-01T16:19:45.450Z,12.10
2022-10-01T16:22:47.409Z,12.10
2022-10-01T16:25:17.085Z,12.10
2022-10-01T16:28:01.009Z,12.00
2022-10-01T16:30:29.721Z,12.10
2022-10-01T16:32:58.620Z,12.10
2022-10-01T16:35:31.078Z,12.10
2022-10-01T16:37:58.161Z,12.00
2022-10-01T16:40:27.309Z,12.00
2022-10-01T16:42:54.277Z,11.90
2022-10-01T16:45:34.023Z,11.90
2022-10-01T16:48:00.966Z,11.90
2022-10-01T16:50:27.734Z,11.90
2022-10-01T16:52:55.559Z,11.90
2022-10-01T16:55:25.024Z,11.90
2022-10-01T16:57:54.531Z,11.90
2022-10-01T17:00:24.330Z,12.00
2022-10-01T17:02:51.684Z,12.00
2022-10-01T17:05:22.505Z,12.00
2022-10-01T17:07:52.031Z,12.00
2022-10-01T17:10:22.319Z,12.00
2022-10-01T17:12:49.697Z,12.00
2022-10-01T17:15:23.177Z,11.90
2022-10-01T17:17:50.021Z,11.90
2022-10-01T17:20:16.762Z,11.90
2022-10-01T17:22:43.508Z,11.90
2022-10-01T17:25:31.859Z,11.90
2022-10-01T17:27:59.638Z,11.90
2022-10-01T17:30:29.088Z,11.90
2022-10-01T17:32:57.011Z,11.90
2022-10-01T17:35:24.062Z,11.90
2022-10-01T17:37:50.726Z,12.00
2022-10-01T17:40:17.561Z,12.00
2022-10-01T17:42:44.551Z,11.90
2022-10-01T17:45:13.357Z,11.90
2022-10-01T17:47:48.029Z,11.90
2022-10-01T17:50:15.864Z,12.00
2022-10-01T17:52:42.906Z,12.00
2022-10-01T17:55:12.016Z,12.00
2022-10-01T17:57:38.808Z,12.00
2022-10-01T18:00:06.494Z,12.00
2022-10-01T18:02:43.110Z,12.00
2022-10-01T18:05:12.754Z,12.10
2022-10-01T18:07:39.494Z,12.00
2022-10-01T18:10:09.410Z,12.00
2022-10-01T18:12:36.113Z,12.00
2022-10-01T18:15:03.124Z,12.00
2022-10-01T18:17:32.293Z,12.00
2022-10-01T18:19:59.209Z,12.00
2022-10-01T18:22:27.182Z,12.00
2022-10-01T18:24:54.210Z,11.90
2022-10-01T18:27:21.037Z,11.90
2022-10-01T18:29:47.702Z,11.90
2022-10-01T18:32:25.051Z,11.90
2022-10-01T18:34:56.010Z,11.90
2022-10-01T18:37:35.949Z,11.80
2022-10-01T18:40:12.264Z,11.80
2022-10-01T18:42:53.063Z,11.80
2022-10-01T18:45:32.396Z,11.80
2022-10-01T18:48:08.682Z,11.80
2022-10-01T18:50:57.353Z,11.90
2022-10-01T18:53:29.906Z,11.90
2022-10-01T18:56:17.066Z,11.90
2022-10-01T18:59:05.514Z,11.90
2022-10-01T19:01:54.553Z,12.00
2022-10-01T19:04:50.271Z,12.00
2022-10-01T19:07:51.698Z,12.00
2022-10-01T19:10:41.365Z,12.10
2022-10-01T19:13:28.484Z,12.10
2022-10-01T19:16:20.069Z,12.10
2022-10-01T19:19:06.380Z,12.20
2022-10-01T19:21:45.193Z,12.10
2022-10-01T19:24:17.651Z,12.20
2022-10-01T19:26:57.658Z,12.00
2022-10-01T19:29:55.031Z,12.00
2022-10-01T19:32:25.694Z,11.90
2022-10-01T19:35:23.053Z,11.90
2022-10-01T19:37:55.062Z,11.90
2022-10-01T19:40:31.179Z,11.80
2022-10-01T19:43:16.188Z,11.80
2022-10-01T19:46:00.596Z,11.80
2022-10-01T19:48:37.498Z,11.90
2022-10-01T19:51:12.461Z,11.90
2022-10-01T19:53:43.609Z,11.90
2022-10-01T19:56:20.627Z,11.90
2022-10-01T19:58:47.371Z,11.90
2022-10-01T20:01:20.327Z,11.90
2022-10-01T20:04:14.463Z,11.90
2022-10-01T20:06:46.353Z,11.90
2022-10-01T20:09:22.637Z,11.90
2022-10-01T20:12:09.285Z,11.90
2022-10-01T20:15:06.695Z,11.90
2022-10-01T20:17:59.281Z,11.90
2022-10-01T20:20:45.242Z,11.90
2022-10-01T20:23:41.074Z,11.90
2022-10-01T20:26:14.386Z,11.90
2022-10-01T20:28:51.872Z,11.80
2022-10-01T20:31:34.426Z,11.80
2022-10-01T20:34:21.392Z,11.70
2022-10-01T20:37:14.275Z,11.70
2022-10-01T20:39:50.784Z,11.70
2022-10-01T20:42:29.418Z,11.70
2022-10-01T20:44:56.219Z,11.60
2022-10-01T20:47:36.561Z,11.70
2022-10-01T20:50:12.644Z,11.70
2022-10-01T20:52:54.170Z,11.70
2022-10-01T20:55:29.146Z,11.70
2022-10-01T20:58:05.450Z,11.70
2022-10-01T21:00:33.372Z,11.70
2022-10-01T21:03:14.824Z,11.70
2022-10-01T21:06:03.122Z,11.70
2022-10-01T21:08:38.073Z,11.70
2022-10-01T21:11:26.714Z,11.70
2022-10-01T21:14:05.305Z,11.70
2022-10-01T21:16:54.735Z,11.70
2022-10-01T21:19:21.453Z,11.70
2022-10-01T21:22:15.809Z,11.70
2022-10-01T21:24:56.330Z,11.70
2022-10-01T21:27:46.923Z,11.70
2022-10-01T21:30:24.186Z,11.70
2022-10-01T21:33:12.591Z,11.60
2022-10-01T21:35:58.734Z,11.70
2022-10-01T21:38:45.566Z,11.70
2022-10-01T21:41:15.350Z,11.70
2022-10-01T21:43:44.743Z,11.70
2022-10-01T21:46:33.736Z,11.70
2022-10-01T21:49:16.911Z,11.70
2022-10-01T21:51:51.150Z,11.70
2022-10-01T21:54:23.586Z,11.70
2022-10-01T21:57:17.606Z,11.70
2022-10-01T22:00:13.172Z,11.60
2022-10-01T22:02:51.878Z,11.60
2022-10-01T22:05:23.390Z,11.60
2022-10-01T22:08:15.368Z,11.60
2022-10-01T22:10:48.349Z,11.60
2022-10-01T22:13:23.138Z,11.70
2022-10-01T22:15:53.158Z,11.60
2022-10-01T22:18:41.523Z,11.60
2022-10-01T22:21:12.655Z,11.60
2022-10-01T22:23:48.491Z,11.60
2022-10-01T22:26:19.787Z,11.60
2022-10-01T22:28:50.440Z,11.50
2022-10-01T22:31:22.960Z,11.70
2022-10-01T22:34:01.177Z,11.60
2022-10-01T22:36:39.184Z,11.60
2022-10-01T22:39:17.692Z,11.50
2022-10-01T22:41:51.985Z,11.50
2022-10-01T22:44:21.383Z,11.60
2022-10-01T22:47:06.762Z,11.50
2022-10-01T22:50:01.261Z,11.60
2022-10-01T22:53:12.506Z,11.50
2022-10-01T22:55:57.992Z,11.50
2022-10-01T22:58:51.881Z,11.50
2022-10-01T23:01:27.741Z,11.50
2022-10-01T23:04:00.622Z,11.50
2022-10-01T23:07:10.741Z,11.40
2022-10-01T23:10:03.217Z,11.40
2022-10-01T23:12:57.543Z,11.40
2022-10-01T23:15:27.302Z,11.40
2022-10-01T23:18:02.724Z,11.40
2022-10-01T23:20:36.388Z,11.30
2022-10-01T23:23:21.830Z,11.30
2022-10-01T23:26:10.005Z,11.30
2022-10-01T23:29:08.244Z,11.30
2022-10-01T23:31:43.890Z,11.30
2022-10-01T23:34:10.564Z,11.30
2022-10-01T23:36:48.880Z,11.30
2022-10-01T23:39:47.813Z,11.40
2022-10-01T23:42:33.088Z,11.40
2022-10-01T23:45:32.669Z,11.40
2022-10-01T23:47:59.441Z,11.40
2022-10-01T23:50:39.749Z,11.40
2022-10-01T23:53:32.748Z,11.40
2022-10-01T23:56:41.561Z,11.30
2022-10-01T23:59:27.639Z,11.20
